sensor_id;sensor_type;location;lat;lon;timestamp;temperature;humidity
33095;DHT22;19459;53.044;8.910;2022-11-20T00:01:15;1.20;99.90
33095;DHT22;19459;53.044;8.910;2022-11-20T00:03:43;1.20;99.90
33095;DHT22;19459;53.044;8.910;2022-11-20T00:06:11;1.10;99.90
33095;DHT22;19459;53.044;8.910;2022-11-20T00:08:38;1.10;99.90
33095;DHT22;19459;53.044;8.910;2022-11-20T00:11:09;1.20;99.90
33095;DHT22;19459;53.044;8.910;2022-11-20T00:13:36;1.20;99.90
33095;DHT22;19459;53.044;8.910;2022-11-20T00:16:04;1.30;99.90
33095;DHT22;19459;53.044;8.910;2022-11-20T00:18:33;1.20;99.90
33095;DHT22;19459;53.044;8.910;2022-11-20T00:21:09;1.20;99.90
33095;DHT22;19459;53.044;8.910;2022-11-20T00:23:36;1.30;99.90
33095;DHT22;19459;53.044;8.910;2022-11-20T00:26:07;1.30;99.90
33095;DHT22;19459;53.044;8.910;2022-11-20T00:28:34;1.30;99.90
33095;DHT22;19459;53.044;8.910;2022-11-20T00:31:05;1.40;99.90
33095;DHT22;19459;53.044;8.910;2022-11-20T00:33:33;1.40;99.90
33095;DHT22;19459;53.044;8.910;2022-11-20T00:36:07;1.40;99.90
33095;DHT22;19459;53.044;8.910;2022-11-20T00:38:35;1.40;99.90
33095;DHT22;19459;53.044;8.910;2022-11-20T00:41:03;1.40;99.90
33095;DHT22;19459;53.044;8.910;2022-11-20T00:43:31;1.40;99.90
33095;DHT22;19459;53.044;8.910;2022-11-20T00:46:17;1.50;99.90
33095;DHT22;19459;53.044;8.910;2022-11-20T00:48:44;1.50;99.90
33095;DHT22;19459;53.044;8.910;2022-11-20T00:51:12;1.50;99.90
33095;DHT22;19459;53.044;8.910;2022-11-20T00:53:39;1.50;99.90
33095;DHT22;19459;53.044;8.910;2022-11-20T00:56:11;1.60;99.90
33095;DHT22;19459;53.044;8.910;2022-11-20T00:58:40;1.60;99.90
33095;DHT22;19459;53.044;8.910;2022-11-20T01:01:25;1.60;99.90
33095;DHT22;19459;53.044;8.910;2022-11-20T01:03:56;1.60;99.90
33095;DHT22;19459;53.044;8.910;2022-11-20T01:06:34;1.60;99.90
33095;DHT22;19459;53.044;8.910;2022-11-20T01:09:11;1.60;99.90
33095;DHT22;19459;53.044;8.910;2022-11-20T01:11:41;1.60;99.90
33095;DHT22;19459;53.044;8.910;2022-11-20T01:14:14;1.60;99.90
33095;DHT22;19459;53.044;8.910;2022-11-20T01:16:45;1.60;99.90
33095;DHT22;19459;53.044;8.910;2022-11-20T01:19:21;1.50;99.90
33095;DHT22;19459;53.044;8.910;2022-11-20T01:21:51;1.60;99.90
33095;DHT22;19459;53.044;8.910;2022-11-20T01:24:19;1.50;99.90
33095;DHT22;19459;53.044;8.910;2022-11-20T01:26:48;1.50;99.90
33095;DHT22;19459;53.044;8.910;2022-11-20T01:29:17;1.50;99.90
33095;DHT22;19459;53.044;8.910;2022-11-20T01:31:46;1.50;99.90
33095;DHT22;19459;53.044;8.910;2022-11-20T01:34:13;1.60;99.90
33095;DHT22;19459;53.044;8.910;2022-11-20T01:36:42;1.60;99.90
33095;DHT22;19459;53.044;8.910;2022-11-20T01:39:14;1.60;99.90
33095;DHT22;19459;53.044;8.910;2022-11-20T01:41:46;1.60;99.90
33095;DHT22;19459;53.044;8.910;2022-11-20T01:47:42;1.70;99.90
33095;DHT22;19459;53.044;8.910;2022-11-20T01:50:18;1.60;99.90
33095;DHT22;19459;53.044;8.910;2022-11-20T01:52:52;1.60;99.90
33095;DHT22;19459;53.044;8.910;2022-11-20T01:55:28;1.60;99.90
33095;DHT22;19459;53.044;8.910;2022-11-20T01:57:56;1.60;99.90
33095;DHT22;19459;53.044;8.910;2022-11-20T02:00:23;1.60;99.90
33095;DHT22;19459;53.044;8.910;2022-11-20T02:02:53;1.60;99.90
33095;DHT22;19459;53.044;8.910;2022-11-20T02:05:38;1.60;99.90
33095;DHT22;19459;53.044;8.910;2022-11-20T02:08:09;1.50;99.90
33095;DHT22;19459;53.044;8.910;2022-11-20T02:10:34;1.50;99.90
33095;DHT22;19459;53.044;8.910;2022-11-20T02:13:00;1.60;99.90
33095;DHT22;19459;53.044;8.910;2022-11-20T02:15:45;1.60;99.90
33095;DHT22;19459;53.044;8.910;2022-11-20T02:18:14;1.50;99.90
33095;DHT22;19459;53.044;8.910;2022-11-20T02:20:48;1.50;99.90
33095;DHT22;19459;53.044;8.910;2022-11-20T02:23:38;1.50;99.90
33095;DHT22;19459;53.044;8.910;2022-11-20T02:26:12;1.50;99.90
33095;DHT22;19459;53.044;8.910;2022-11-20T02:28:38;1.50;99.90
33095;DHT22;19459;53.044;8.910;2022-11-20T02:31:05;1.50;99.90
33095;DHT22;19459;53.044;8.910;2022-11-20T02:33:30;1.50;99.90
33095;DHT22;19459;53.044;8.910;2022-11-20T02:35:56;1.60;99.90
33095;DHT22;19459;53.044;8.910;2022-11-20T02:38:22;1.60;99.90
33095;DHT22;19459;53.044;8.910;2022-11-20T02:40:48;1.60;99.90
33095;DHT22;19459;53.044;8.910;2022-11-20T02:43:16;1.60;99.90
33095;DHT22;19459;53.044;8.910;2022-11-20T02:45:42;1.50;99.90
33095;DHT22;19459;53.044;8.910;2022-11-20T02:48:08;1.50;99.90
33095;DHT22;19459;53.044;8.910;2022-11-20T02:50:37;1.50;99.90
33095;DHT22;19459;53.044;8.910;2022-11-20T02:53:04;1.50;99.90
33095;DHT22;19459;53.044;8.910;2022-11-20T02:55:30;1.50;99.90
33095;DHT22;19459;53.044;8.910;2022-11-20T02:57:56;1.40;99.90
33095;DHT22;19459;53.044;8.910;2022-11-20T03:00:22;1.50;99.90
33095;DHT22;19459;53.044;8.910;2022-11-20T03:02:47;1.50;99.90
33095;DHT22;19459;53.044;8.910;2022-11-20T03:05:13;1.50;99.90
33095;DHT22;19459;53.044;8.910;2022-11-20T03:07:39;1.50;99.90
33095;DHT22;19459;53.044;8.910;2022-11-20T03:10:05;1.50;99.90
33095;DHT22;19459;53.044;8.910;2022-11-20T03:12:31;1.50;99.90
33095;DHT22;19459;53.044;8.910;2022-11-20T03:14:57;1.50;99.90
33095;DHT22;19459;53.044;8.910;2022-11-20T03:17:23;1.60;99.90
33095;DHT22;19459;53.044;8.910;2022-11-20T03:19:50;1.60;99.90
33095;DHT22;19459;53.044;8.910;2022-11-20T03:22:15;1.60;99.90
33095;DHT22;19459;53.044;8.910;2022-11-20T03:24:41;1.60;99.90
33095;DHT22;19459;53.044;8.910;2022-11-20T03:27:07;1.60;99.90
33095;DHT22;19459;53.044;8.910;2022-11-20T03:29:32;1.60;99.90
33095;DHT22;19459;53.044;8.910;2022-11-20T03:32:00;1.60;99.90
33095;DHT22;19459;53.044;8.910;2022-11-20T03:34:26;1.60;99.90
33095;DHT22;19459;53.044;8.910;2022-11-20T03:36:52;1.60;99.90
33095;DHT22;19459;53.044;8.910;2022-11-20T03:39:17;1.60;99.90
33095;DHT22;19459;53.044;8.910;2022-11-20T03:41:43;1.70;99.90
33095;DHT22;19459;53.044;8.910;2022-11-20T03:44:11;1.70;99.90
33095;DHT22;19459;53.044;8.910;2022-11-20T03:46:37;1.70;99.90
33095;DHT22;19459;53.044;8.910;2022-11-20T03:49:04;1.70;99.90
33095;DHT22;19459;53.044;8.910;2022-11-20T03:51:32;1.70;99.90
33095;DHT22;19459;53.044;8.910;2022-11-20T03:54:02;1.70;99.90
33095;DHT22;19459;53.044;8.910;2022-11-20T03:56:34;1.70;99.90
33095;DHT22;19459;53.044;8.910;2022-11-20T03:59:01;1.70;99.90
33095;DHT22;19459;53.044;8.910;2022-11-20T04:01:33;1.70;99.90
33095;DHT22;19459;53.044;8.910;2022-11-20T04:04:01;1.60;99.90
33095;DHT22;19459;53.044;8.910;2022-11-20T04:06:35;1.60;99.90
33095;DHT22;19459;53.044;8.910;2022-11-20T04:09:02;1.60;99.90
33095;DHT22;19459;53.044;8.910;2022-11-20T04:11:34;1.70;99.90
33095;DHT22;19459;53.044;8.910;2022-11-20T04:14:03;1.70;99.90
33095;DHT22;19459;53.044;8.910;2022-11-20T04:16:33;1.70;99.90
33095;DHT22;19459;53.044;8.910;2022-11-20T04:19:02;1.70;99.90
33095;DHT22;19459;53.044;8.910;2022-11-20T04:21:29;1.70;99.90
33095;DHT22;19459;53.044;8.910;2022-11-20T04:23:57;1.70;99.90
33095;DHT22;19459;53.044;8.910;2022-11-20T04:26:25;1.70;99.90
33095;DHT22;19459;53.044;8.910;2022-11-20T04:28:52;1.70;99.90
33095;DHT22;19459;53.044;8.910;2022-11-20T04:31:23;1.70;99.90
33095;DHT22;19459;53.044;8.910;2022-11-20T04:33:51;1.70;99.90
33095;DHT22;19459;53.044;8.910;2022-11-20T04:36:22;1.70;99.90
33095;DHT22;19459;53.044;8.910;2022-11-20T04:38:57;1.70;99.90
33095;DHT22;19459;53.044;8.910;2022-11-20T04:41:29;1.70;99.90
33095;DHT22;19459;53.044;8.910;2022-11-20T04:44:00;1.70;99.90
33095;DHT22;19459;53.044;8.910;2022-11-20T04:46:29;1.70;99.90
33095;DHT22;19459;53.044;8.910;2022-11-20T04:48:56;1.70;99.90
33095;DHT22;19459;53.044;8.910;2022-11-20T04:51:22;1.70;99.90
33095;DHT22;19459;53.044;8.910;2022-11-20T04:53:49;1.70;99.90
33095;DHT22;19459;53.044;8.910;2022-11-20T04:56:15;1.70;99.90
33095;DHT22;19459;53.044;8.910;2022-11-20T04:58:42;1.70;99.90
33095;DHT22;19459;53.044;8.910;2022-11-20T05:01:16;1.60;99.90
33095;DHT22;19459;53.044;8.910;2022-11-20T05:03:44;1.60;99.90
33095;DHT22;19459;53.044;8.910;2022-11-20T05:06:13;1.60;99.90
33095;DHT22;19459;53.044;8.910;2022-11-20T05:08:42;1.60;99.90
33095;DHT22;19459;53.044;8.910;2022-11-20T05:11:14;1.60;99.90
33095;DHT22;19459;53.044;8.910;2022-11-20T05:13:44;1.60;99.90
33095;DHT22;19459;53.044;8.910;2022-11-20T05:16:12;1.60;99.90
33095;DHT22;19459;53.044;8.910;2022-11-20T05:18:40;1.60;99.90
33095;DHT22;19459;53.044;8.910;2022-11-20T05:21:10;1.60;99.90
33095;DHT22;19459;53.044;8.910;2022-11-20T05:23:37;1.70;99.90
33095;DHT22;19459;53.044;8.910;2022-11-20T05:26:03;1.70;99.90
33095;DHT22;19459;53.044;8.910;2022-11-20T05:28:31;1.70;99.90
33095;DHT22;19459;53.044;8.910;2022-11-20T05:31:08;1.70;99.90
33095;DHT22;19459;53.044;8.910;2022-11-20T05:33:40;1.70;99.90
33095;DHT22;19459;53.044;8.910;2022-11-20T05:36:07;1.70;99.90
33095;DHT22;19459;53.044;8.910;2022-11-20T05:38:33;1.70;99.90
33095;DHT22;19459;53.044;8.910;2022-11-20T05:41:12;1.70;99.90
33095;DHT22;19459;53.044;8.910;2022-11-20T05:43:41;1.70;99.90
33095;DHT22;19459;53.044;8.910;2022-11-20T05:46:09;1.70;99.90
33095;DHT22;19459;53.044;8.910;2022-11-20T05:48:38;1.70;99.90
33095;DHT22;19459;53.044;8.910;2022-11-20T05:51:07;1.70;99.90
33095;DHT22;19459;53.044;8.910;2022-11-20T05:53:34;1.70;99.90
33095;DHT22;19459;53.044;8.910;2022-11-20T05:56:07;1.70;99.90
33095;DHT22;19459;53.044;8.910;2022-11-20T05:58:36;1.70;99.90
33095;DHT22;19459;53.044;8.910;2022-11-20T06:01:06;1.70;99.90
33095;DHT22;19459;53.044;8.910;2022-11-20T06:03:38;1.70;99.90
33095;DHT22;19459;53.044;8.910;2022-11-20T06:06:06;1.70;99.90
33095;DHT22;19459;53.044;8.910;2022-11-20T06:08:32;1.70;99.90
33095;DHT22;19459;53.044;8.910;2022-11-20T06:10:58;1.70;99.90
33095;DHT22;19459;53.044;8.910;2022-11-20T06:13:28;1.70;99.90
33095;DHT22;19459;53.044;8.910;2022-11-20T06:15:54;1.70;99.90
33095;DHT22;19459;53.044;8.910;2022-11-20T06:18:20;1.70;99.90
33095;DHT22;19459;53.044;8.910;2022-11-20T06:20:46;1.70;99.90
33095;DHT22;19459;53.044;8.910;2022-11-20T06:23:12;1.80;99.90
33095;DHT22;19459;53.044;8.910;2022-11-20T06:25:39;1.70;99.90
33095;DHT22;19459;53.044;8.910;2022-11-20T06:28:06;1.70;99.90
33095;DHT22;19459;53.044;8.910;2022-11-20T06:30:32;1.70;99.90
33095;DHT22;19459;53.044;8.910;2022-11-20T06:32:58;1.80;99.90
33095;DHT22;19459;53.044;8.910;2022-11-20T06:35:24;1.80;99.90
33095;DHT22;19459;53.044;8.910;2022-11-20T06:37:50;1.80;99.90
33095;DHT22;19459;53.044;8.910;2022-11-20T06:40:16;1.80;99.90
33095;DHT22;19459;53.044;8.910;2022-11-20T06:42:41;1.70;99.90
33095;DHT22;19459;53.044;8.910;2022-11-20T06:45:08;1.70;99.90
33095;DHT22;19459;53.044;8.910;2022-11-20T06:47:34;1.70;99.90
33095;DHT22;19459;53.044;8.910;2022-11-20T06:50:00;1.70;99.90
33095;DHT22;19459;53.044;8.910;2022-11-20T06:52:26;1.70;99.90
33095;DHT22;19459;53.044;8.910;2022-11-20T06:54:51;1.70;99.90
33095;DHT22;19459;53.044;8.910;2022-11-20T06:57:17;1.70;99.90
33095;DHT22;19459;53.044;8.910;2022-11-20T06:59:43;1.70;99.90
33095;DHT22;19459;53.044;8.910;2022-11-20T07:02:10;1.70;99.90
33095;DHT22;19459;53.044;8.910;2022-11-20T07:04:37;1.70;99.90
33095;DHT22;19459;53.044;8.910;2022-11-20T07:07:04;1.70;99.90
33095;DHT22;19459;53.044;8.910;2022-11-20T07:09:31;1.70;99.90
33095;DHT22;19459;53.044;8.910;2022-11-20T07:11:57;1.70;99.90
33095;DHT22;19459;53.044;8.910;2022-11-20T07:14:23;1.60;99.90
33095;DHT22;19459;53.044;8.910;2022-11-20T07:16:49;1.60;99.90
33095;DHT22;19459;53.044;8.910;2022-11-20T07:19:15;1.60;99.90
33095;DHT22;19459;53.044;8.910;2022-11-20T07:21:41;1.50;99.90
33095;DHT22;19459;53.044;8.910;2022-11-20T07:24:06;1.50;99.90
33095;DHT22;19459;53.044;8.910;2022-11-20T07:26:32;1.50;99.90
33095;DHT22;19459;53.044;8.910;2022-11-20T07:28:58;1.50;99.90
33095;DHT22;19459;53.044;8.910;2022-11-20T07:31:24;1.50;99.90
33095;DHT22;19459;53.044;8.910;2022-11-20T07:33:49;1.50;99.90
33095;DHT22;19459;53.044;8.910;2022-11-20T07:36:15;1.50;99.90
33095;DHT22;19459;53.044;8.910;2022-11-20T07:38:41;1.50;99.90
33095;DHT22;19459;53.044;8.910;2022-11-20T07:41:07;1.50;99.90
33095;DHT22;19459;53.044;8.910;2022-11-20T07:43:32;1.40;99.90
33095;DHT22;19459;53.044;8.910;2022-11-20T07:45:58;1.50;99.90
33095;DHT22;19459;53.044;8.910;2022-11-20T07:48:25;1.40;99.90
33095;DHT22;19459;53.044;8.910;2022-11-20T07:50:55;1.40;99.90
33095;DHT22;19459;53.044;8.910;2022-11-20T07:53:22;1.40;99.90
33095;DHT22;19459;53.044;8.910;2022-11-20T07:55:48;1.40;99.90
33095;DHT22;19459;53.044;8.910;2022-11-20T07:58:14;1.50;99.90
33095;DHT22;19459;53.044;8.910;2022-11-20T08:00:41;1.50;99.90
33095;DHT22;19459;53.044;8.910;2022-11-20T08:03:07;1.50;99.90
33095;DHT22;19459;53.044;8.910;2022-11-20T08:05:33;1.50;99.90
33095;DHT22;19459;53.044;8.910;2022-11-20T08:07:59;1.50;99.90
33095;DHT22;19459;53.044;8.910;2022-11-20T08:10:25;1.60;99.90
33095;DHT22;19459;53.044;8.910;2022-11-20T08:12:52;1.60;99.90
33095;DHT22;19459;53.044;8.910;2022-11-20T08:15:38;1.60;99.90
33095;DHT22;19459;53.044;8.910;2022-11-20T08:18:11;1.60;99.90
33095;DHT22;19459;53.044;8.910;2022-11-20T08:20:38;1.50;99.90
33095;DHT22;19459;53.044;8.910;2022-11-20T08:23:05;1.60;99.90
33095;DHT22;19459;53.044;8.910;2022-11-20T08:25:34;1.60;99.90
33095;DHT22;19459;53.044;8.910;2022-11-20T08:28:02;1.60;99.90
33095;DHT22;19459;53.044;8.910;2022-11-20T08:30:30;1.70;99.90
33095;DHT22;19459;53.044;8.910;2022-11-20T08:33:05;1.70;99.90
33095;DHT22;19459;53.044;8.910;2022-11-20T08:35:36;1.60;99.90
33095;DHT22;19459;53.044;8.910;2022-11-20T08:38:03;1.60;99.90
33095;DHT22;19459;53.044;8.910;2022-11-20T08:40:30;1.60;99.90
33095;DHT22;19459;53.044;8.910;2022-11-20T08:42:57;1.70;99.90
33095;DHT22;19459;53.044;8.910;2022-11-20T08:45:23;1.70;99.90
33095;DHT22;19459;53.044;8.910;2022-11-20T08:47:49;1.80;99.90
33095;DHT22;19459;53.044;8.910;2022-11-20T08:50:16;1.90;99.90
33095;DHT22;19459;53.044;8.910;2022-11-20T08:52:42;1.90;99.90
33095;DHT22;19459;53.044;8.910;2022-11-20T08:55:09;1.90;99.90
33095;DHT22;19459;53.044;8.910;2022-11-20T08:57:35;1.90;99.90
33095;DHT22;19459;53.044;8.910;2022-11-20T09:00:04;1.90;99.90
33095;DHT22;19459;53.044;8.910;2022-11-20T09:02:31;2.00;99.90
33095;DHT22;19459;53.044;8.910;2022-11-20T09:04:58;2.00;99.90
33095;DHT22;19459;53.044;8.910;2022-11-20T09:07:23;2.00;99.90
33095;DHT22;19459;53.044;8.910;2022-11-20T09:09:49;2.10;99.90
33095;DHT22;19459;53.044;8.910;2022-11-20T09:12:15;2.10;99.90
33095;DHT22;19459;53.044;8.910;2022-11-20T09:14:41;2.20;99.90
33095;DHT22;19459;53.044;8.910;2022-11-20T09:17:07;2.20;99.90
33095;DHT22;19459;53.044;8.910;2022-11-20T09:19:33;2.30;99.90
33095;DHT22;19459;53.044;8.910;2022-11-20T09:21:59;2.30;99.90
33095;DHT22;19459;53.044;8.910;2022-11-20T09:24:26;2.40;99.90
33095;DHT22;19459;53.044;8.910;2022-11-20T09:26:52;2.50;99.90
33095;DHT22;19459;53.044;8.910;2022-11-20T09:29:17;2.50;99.90
33095;DHT22;19459;53.044;8.910;2022-11-20T09:31:43;2.60;99.90
33095;DHT22;19459;53.044;8.910;2022-11-20T09:34:09;2.50;99.90
33095;DHT22;19459;53.044;8.910;2022-11-20T09:36:36;2.60;99.90
33095;DHT22;19459;53.044;8.910;2022-11-20T09:39:02;2.60;99.90
33095;DHT22;19459;53.044;8.910;2022-11-20T09:44:49;2.50;99.90
33095;DHT22;19459;53.044;8.910;2022-11-20T09:47:46;2.50;99.90
33095;DHT22;19459;53.044;8.910;2022-11-20T09:50:43;2.50;99.90
33095;DHT22;19459;53.044;8.910;2022-11-20T09:56:03;2.50;99.90
33095;DHT22;19459;53.044;8.910;2022-11-20T10:01:18;2.30;99.90
33095;DHT22;19459;53.044;8.910;2022-11-20T10:04:03;2.20;99.90
33095;DHT22;19459;53.044;8.910;2022-11-20T10:06:33;2.20;99.90
33095;DHT22;19459;53.044;8.910;2022-11-20T10:09:14;2.20;99.90
33095;DHT22;19459;53.044;8.910;2022-11-20T10:11:51;2.30;99.90
33095;DHT22;19459;53.044;8.910;2022-11-20T10:25:23;2.10;99.90
33095;DHT22;19459;53.044;8.910;2022-11-20T10:30:26;2.10;99.90
33095;DHT22;19459;53.044;8.910;2022-11-20T10:32:55;2.10;99.90
33095;DHT22;19459;53.044;8.910;2022-11-20T10:38:04;2.00;99.90
33095;DHT22;19459;53.044;8.910;2022-11-20T10:43:17;2.10;99.90
33095;DHT22;19459;53.044;8.910;2022-11-20T10:46:06;2.10;99.90
33095;DHT22;19459;53.044;8.910;2022-11-20T10:48:36;2.10;99.90
33095;DHT22;19459;53.044;8.910;2022-11-20T10:51:31;2.10;99.90
33095;DHT22;19459;53.044;8.910;2022-11-20T10:56:51;2.10;99.90
33095;DHT22;19459;53.044;8.910;2022-11-20T11:01:55;2.10;99.90
33095;DHT22;19459;53.044;8.910;2022-11-20T11:04:26;2.10;99.90
33095;DHT22;19459;53.044;8.910;2022-11-20T11:07:35;2.00;99.90
33095;DHT22;19459;53.044;8.910;2022-11-20T11:10:32;2.00;99.90
33095;DHT22;19459;53.044;8.910;2022-11-20T11:12:58;2.00;99.90
33095;DHT22;19459;53.044;8.910;2022-11-20T11:17:55;2.10;99.90
33095;DHT22;19459;53.044;8.910;2022-11-20T11:20:24;2.00;99.90
33095;DHT22;19459;53.044;8.910;2022-11-20T11:22:52;2.10;99.90
33095;DHT22;19459;53.044;8.910;2022-11-20T11:25:21;2.00;99.90
33095;DHT22;19459;53.044;8.910;2022-11-20T11:28:21;2.00;99.90
33095;DHT22;19459;53.044;8.910;2022-11-20T11:30:47;1.90;99.90
33095;DHT22;19459;53.044;8.910;2022-11-20T11:33:25;2.00;99.90
33095;DHT22;19459;53.044;8.910;2022-11-20T11:35:57;1.70;99.90
33095;DHT22;19459;53.044;8.910;2022-11-20T11:38:41;1.70;99.90
33095;DHT22;19459;53.044;8.910;2022-11-20T11:41:20;1.80;99.90
33095;DHT22;19459;53.044;8.910;2022-11-20T11:43:54;1.80;99.90
33095;DHT22;19459;53.044;8.910;2022-11-20T11:46:43;1.80;99.90
33095;DHT22;19459;53.044;8.910;2022-11-20T11:49:17;1.80;99.90
33095;DHT22;19459;53.044;8.910;2022-11-20T11:52:08;1.80;99.90
33095;DHT22;19459;53.044;8.910;2022-11-20T11:57:51;2.30;99.90
33095;DHT22;19459;53.044;8.910;2022-11-20T12:06:43;2.90;99.90
33095;DHT22;19459;53.044;8.910;2022-11-20T12:09:12;3.10;99.90
33095;DHT22;19459;53.044;8.910;2022-11-20T12:12:10;3.50;99.90
33095;DHT22;19459;53.044;8.910;2022-11-20T12:14:41;3.70;99.90
33095;DHT22;19459;53.044;8.910;2022-11-20T12:17:11;3.80;99.90
33095;DHT22;19459;53.044;8.910;2022-11-20T12:19:38;3.90;99.90
33095;DHT22;19459;53.044;8.910;2022-11-20T12:31:03;3.70;99.90
33095;DHT22;19459;53.044;8.910;2022-11-20T12:39:51;3.50;99.90
33095;DHT22;19459;53.044;8.910;2022-11-20T12:51:51;2.90;99.90
33095;DHT22;19459;53.044;8.910;2022-11-20T13:01:00;2.80;99.90
33095;DHT22;19459;53.044;8.910;2022-11-20T13:03:47;2.80;99.90
33095;DHT22;19459;53.044;8.910;2022-11-20T13:06:18;2.90;99.90
33095;DHT22;19459;53.044;8.910;2022-11-20T13:09:04;2.80;99.90
33095;DHT22;19459;53.044;8.910;2022-11-20T13:14:24;2.70;99.90
33095;DHT22;19459;53.044;8.910;2022-11-20T13:19:32;2.50;99.90
33095;DHT22;19459;53.044;8.910;2022-11-20T13:21:58;2.30;99.90
33095;DHT22;19459;53.044;8.910;2022-11-20T13:24:32;2.30;99.90
33095;DHT22;19459;53.044;8.910;2022-11-20T13:29:42;2.30;99.90
33095;DHT22;19459;53.044;8.910;2022-11-20T13:32:20;2.30;99.90
33095;DHT22;19459;53.044;8.910;2022-11-20T13:34:54;2.30;99.90
33095;DHT22;19459;53.044;8.910;2022-11-20T13:37:33;2.30;99.90
33095;DHT22;19459;53.044;8.910;2022-11-20T13:42:46;2.50;99.90
33095;DHT22;19459;53.044;8.910;2022-11-20T13:45:26;2.70;99.90
33095;DHT22;19459;53.044;8.910;2022-11-20T13:47:54;2.40;99.90
33095;DHT22;19459;53.044;8.910;2022-11-20T13:50:40;2.40;99.90
33095;DHT22;19459;53.044;8.910;2022-11-20T13:56:05;1.90;99.90
33095;DHT22;19459;53.044;8.910;2022-11-20T13:59:02;1.70;99.90
33095;DHT22;19459;53.044;8.910;2022-11-20T14:01:33;1.80;99.90
33095;DHT22;19459;53.044;8.910;2022-11-20T14:04:06;1.70;99.90
33095;DHT22;19459;53.044;8.910;2022-11-20T14:06:44;1.80;99.90
33095;DHT22;19459;53.044;8.910;2022-11-20T14:09:28;1.60;99.90
33095;DHT22;19459;53.044;8.910;2022-11-20T14:11:55;1.70;99.90
33095;DHT22;19459;53.044;8.910;2022-11-20T14:14:33;1.70;99.90
33095;DHT22;19459;53.044;8.910;2022-11-20T14:17:17;1.80;99.90
33095;DHT22;19459;53.044;8.910;2022-11-20T14:19:45;1.90;99.90
33095;DHT22;19459;53.044;8.910;2022-11-20T14:25:06;2.00;99.90
33095;DHT22;19459;53.044;8.910;2022-11-20T14:27:44;2.00;99.90
33095;DHT22;19459;53.044;8.910;2022-11-20T14:30:19;1.70;99.90
33095;DHT22;19459;53.044;8.910;2022-11-20T14:32:48;1.70;99.90
33095;DHT22;19459;53.044;8.910;2022-11-20T14:35:44;1.80;99.90
33095;DHT22;19459;53.044;8.910;2022-11-20T14:38:17;1.80;99.90
33095;DHT22;19459;53.044;8.910;2022-11-20T14:40:44;1.80;99.90
33095;DHT22;19459;53.044;8.910;2022-11-20T14:43:23;1.80;99.90
33095;DHT22;19459;53.044;8.910;2022-11-20T14:46:09;1.70;99.90
33095;DHT22;19459;53.044;8.910;2022-11-20T14:51:11;1.30;99.90
33095;DHT22;19459;53.044;8.910;2022-11-20T14:54:14;1.30;99.90
33095;DHT22;19459;53.044;8.910;2022-11-20T14:56:56;1.30;99.90
33095;DHT22;19459;53.044;8.910;2022-11-20T14:59:25;1.30;99.90
33095;DHT22;19459;53.044;8.910;2022-11-20T15:01:58;1.30;99.90
33095;DHT22;19459;53.044;8.910;2022-11-20T15:04:25;1.20;99.90
33095;DHT22;19459;53.044;8.910;2022-11-20T15:06:54;1.20;99.90
33095;DHT22;19459;53.044;8.910;2022-11-20T15:09:21;1.20;99.90
33095;DHT22;19459;53.044;8.910;2022-11-20T15:12:03;1.10;99.90
33095;DHT22;19459;53.044;8.910;2022-11-20T15:14:30;1.00;99.90
33095;DHT22;19459;53.044;8.910;2022-11-20T15:16:59;1.00;99.90
33095;DHT22;19459;53.044;8.910;2022-11-20T15:19:25;1.10;99.90
33095;DHT22;19459;53.044;8.910;2022-11-20T15:21:52;1.00;99.90
33095;DHT22;19459;53.044;8.910;2022-11-20T15:24:19;1.10;99.90
33095;DHT22;19459;53.044;8.910;2022-11-20T15:26:45;1.10;99.90
33095;DHT22;19459;53.044;8.910;2022-11-20T15:29:12;1.00;99.90
33095;DHT22;19459;53.044;8.910;2022-11-20T15:31:44;1.00;99.90
33095;DHT22;19459;53.044;8.910;2022-11-20T15:34:16;1.10;99.90
33095;DHT22;19459;53.044;8.910;2022-11-20T15:36:44;1.10;99.90
33095;DHT22;19459;53.044;8.910;2022-11-20T15:39:10;1.10;99.90
33095;DHT22;19459;53.044;8.910;2022-11-20T15:41:37;1.10;99.90
33095;DHT22;19459;53.044;8.910;2022-11-20T15:44:04;1.00;99.90
33095;DHT22;19459;53.044;8.910;2022-11-20T15:46:36;1.00;99.90
33095;DHT22;19459;53.044;8.910;2022-11-20T15:49:05;1.00;99.90
33095;DHT22;19459;53.044;8.910;2022-11-20T15:51:36;1.00;99.90
33095;DHT22;19459;53.044;8.910;2022-11-20T15:54:11;1.00;99.90
33095;DHT22;19459;53.044;8.910;2022-11-20T15:56:38;0.90;99.90
33095;DHT22;19459;53.044;8.910;2022-11-20T15:59:04;0.90;99.90
33095;DHT22;19459;53.044;8.910;2022-11-20T16:01:30;0.80;99.90
33095;DHT22;19459;53.044;8.910;2022-11-20T16:03:56;0.80;99.90
33095;DHT22;19459;53.044;8.910;2022-11-20T16:06:21;0.80;99.90
33095;DHT22;19459;53.044;8.910;2022-11-20T16:08:47;0.80;99.90
33095;DHT22;19459;53.044;8.910;2022-11-20T16:11:15;0.70;99.90
33095;DHT22;19459;53.044;8.910;2022-11-20T16:13:42;0.70;99.90
33095;DHT22;19459;53.044;8.910;2022-11-20T16:16:36;0.50;99.90
33095;DHT22;19459;53.044;8.910;2022-11-20T16:19:03;0.50;99.90
33095;DHT22;19459;53.044;8.910;2022-11-20T16:21:29;0.50;99.90
33095;DHT22;19459;53.044;8.910;2022-11-20T16:23:59;0.60;99.90
33095;DHT22;19459;53.044;8.910;2022-11-20T16:26:25;0.50;99.90
33095;DHT22;19459;53.044;8.910;2022-11-20T16:28:51;0.60;99.90
33095;DHT22;19459;53.044;8.910;2022-11-20T16:31:18;0.60;99.90
33095;DHT22;19459;53.044;8.910;2022-11-20T16:33:55;0.60;99.90
33095;DHT22;19459;53.044;8.910;2022-11-20T16:36:24;0.60;99.90
33095;DHT22;19459;53.044;8.910;2022-11-20T16:38:59;0.40;99.90
33095;DHT22;19459;53.044;8.910;2022-11-20T16:41:27;0.40;99.90
33095;DHT22;19459;53.044;8.910;2022-11-20T16:43:58;0.30;99.90
33095;DHT22;19459;53.044;8.910;2022-11-20T16:46:27;0.40;99.90
33095;DHT22;19459;53.044;8.910;2022-11-20T16:48:55;0.40;99.90
33095;DHT22;19459;53.044;8.910;2022-11-20T16:51:24;0.30;99.90
33095;DHT22;19459;53.044;8.910;2022-11-20T16:53:51;0.30;99.90
33095;DHT22;19459;53.044;8.910;2022-11-20T16:56:20;0.30;99.90
33095;DHT22;19459;53.044;8.910;2022-11-20T16:58:47;0.30;99.90
33095;DHT22;19459;53.044;8.910;2022-11-20T17:01:19;0.40;99.90
33095;DHT22;19459;53.044;8.910;2022-11-20T17:03:53;0.30;99.90
33095;DHT22;19459;53.044;8.910;2022-11-20T17:06:23;0.30;99.90
33095;DHT22;19459;53.044;8.910;2022-11-20T17:08:54;0.30;99.90
33095;DHT22;19459;53.044;8.910;2022-11-20T17:11:21;0.30;99.90
33095;DHT22;19459;53.044;8.910;2022-11-20T17:13:48;0.30;99.90
33095;DHT22;19459;53.044;8.910;2022-11-20T17:16:19;0.20;99.90
33095;DHT22;19459;53.044;8.910;2022-11-20T17:18:46;0.20;99.90
33095;DHT22;19459;53.044;8.910;2022-11-20T17:21:15;0.20;99.90
33095;DHT22;19459;53.044;8.910;2022-11-20T17:23:43;0.10;99.90
33095;DHT22;19459;53.044;8.910;2022-11-20T17:28:42;0.10;99.90
33095;DHT22;19459;53.044;8.910;2022-11-20T17:31:13;0.00;99.90
33095;DHT22;19459;53.044;8.910;2022-11-20T17:33:41;0.00;99.90
33095;DHT22;19459;53.044;8.910;2022-11-20T17:36:11;0.00;99.90
33095;DHT22;19459;53.044;8.910;2022-11-20T17:38:38;0.00;99.90
33095;DHT22;19459;53.044;8.910;2022-11-20T17:41:09;0.00;99.90
33095;DHT22;19459;53.044;8.910;2022-11-20T17:43:37;-0.10;99.90
33095;DHT22;19459;53.044;8.910;2022-11-20T17:46:11;-0.10;99.90